Time;durP1;ratioP1;P1;durP2;ratioP2;P2;SDS_P1;SDS_P2;PMS_P1;PMS_P2;Temp;Humidity;BMP_temperature;BMP_pressure;BME280_temperature;BME280_humidity;BME280_pressure;Samples;Min_cycle;Max_cycle;Signal;HPM_P1;HPM_P2
2021/12/16 00:31:30;;;;;;;10.27;7.72;;;;;;;4.87;69.66;100594.63;5112663;28;20296;-66
2021/12/16 00:34:03;;;;;;;11.68;8.23;;;;;;;4.90;69.76;100603.34;5112595;28;20047;-66
2021/12/16 00:36:39;;;;;;;9.82;7.68;;;;;;;4.87;69.55;100613.00;5112641;28;20044;-66
2021/12/16 00:39:14;;;;;;;9.82;7.53;;;;;;;4.90;69.53;100603.34;5112270;28;20307;-67
2021/12/16 00:41:49;;;;;;;9.98;6.63;;;;;;;4.91;69.74;100599.84;5112593;28;20040;-67
2021/12/16 00:44:47;;;;;;;10.75;7.07;;;;;;;4.91;69.46;100602.47;5112557;28;20039;-67
2021/12/16 00:47:33;;;;;;;7.85;6.47;;;;;;;4.96;69.79;100608.53;5112425;28;20048;-67
2021/12/16 00:50:20;;;;;;;8.60;6.63;;;;;;;5.00;69.77;100609.38;5112175;28;20040;-66
2021/12/16 00:55:48;;;;;;;9.68;7.30;;;;;;;5.00;69.57;100615.50;5112431;28;20048;-66
2021/12/16 00:58:26;;;;;;;10.35;7.40;;;;;;;4.78;69.62;100570.19;5112343;28;20054;-66
2021/12/16 01:01:06;;;;;;;10.98;7.22;;;;;;;5.05;69.61;100610.19;5112359;28;20047;-66
2021/12/16 01:03:46;;;;;;;8.68;6.20;;;;;;;5.04;69.24;100617.19;5112347;28;20058;-67
2021/12/16 01:06:46;;;;;;;9.73;7.50;;;;;;;5.04;69.13;100616.31;5112306;28;20280;-67
2021/12/16 01:35:18;;;;;;;8.77;6.35;;;;;;;4.93;69.52;100605.09;5050080;28;20260;-68
2021/12/16 01:38:41;;;;;;;9.90;6.22;;;;;;;4.93;69.05;100599.81;5103935;28;20052;-67
2021/12/16 01:47:18;;;;;;;9.00;5.90;;;;;;;4.98;69.28;100603.25;5054257;28;20057;-68
2021/12/16 01:49:59;;;;;;;9.82;6.35;;;;;;;4.96;69.01;100594.53;5108667;28;20048;-67
2021/12/16 01:55:44;;;;;;;8.13;5.82;;;;;;;4.94;69.02;100584.03;5046659;28;20293;-67
2021/12/16 01:58:20;;;;;;;8.52;6.05;;;;;;;4.96;69.13;100578.78;5101049;28;20296;-67
2021/12/16 02:01:10;;;;;;;8.52;7.00;;;;;;;4.98;69.00;100579.63;5108172;28;20040;-68
2021/12/16 02:03:48;;;;;;;10.70;6.15;;;;;;;4.93;69.07;100577.06;5108378;28;20052;-67
2021/12/16 02:06:42;;;;;;;12.25;6.63;;;;;;;4.96;69.03;100576.16;5108354;28;20052;-67
2021/12/16 02:09:23;;;;;;;7.60;5.90;;;;;;;4.95;68.96;100572.66;5108296;28;20044;-67
2021/12/16 02:12:02;;;;;;;8.50;4.95;;;;;;;4.97;69.25;100573.50;5108263;28;20040;-67
2021/12/16 02:29:06;;;;;;;6.95;4.85;;;;;;;5.01;69.30;100558.56;5107816;28;20048;-67
2021/12/16 02:31:52;;;;;;;8.32;5.63;;;;;;;5.00;69.07;100554.19;5107839;28;20284;-67
2021/12/16 02:34:30;;;;;;;8.95;5.70;;;;;;;5.01;69.27;100562.06;5107793;28;20047;-67
2021/12/16 02:37:10;;;;;;;6.82;5.53;;;;;;;5.04;69.46;100556.75;5107485;28;20047;-67
2021/12/16 02:39:42;;;;;;;9.57;5.32;;;;;;;5.07;69.50;100558.47;5107655;28;20048;-67
2021/12/16 02:42:20;;;;;;;5.45;4.18;;;;;;;5.07;69.28;100553.22;5107645;28;20040;-67
2021/12/16 02:50:32;;;;;;;6.05;4.95;;;;;;;5.00;69.26;100552.44;5107310;28;20040;-67
2021/12/16 02:53:06;;;;;;;8.80;5.70;;;;;;;5.02;69.52;100555.03;5107431;28;20048;-67
2021/12/16 02:55:35;;;;;;;7.18;4.97;;;;;;;5.04;69.66;100555.91;5107369;28;20048;-67
2021/12/16 02:58:05;;;;;;;7.13;5.25;;;;;;;5.05;69.52;100558.50;5107367;28;20097;-67
2021/12/16 03:00:41;;;;;;;7.07;4.65;;;;;;;5.03;69.55;100557.66;5107299;28;20292;-68
2021/12/16 03:03:11;;;;;;;8.95;5.82;;;;;;;5.03;69.51;100543.66;5107224;28;20289;-67
2021/12/16 03:05:41;;;;;;;7.82;6.05;;;;;;;5.03;69.53;100560.28;5107140;28;20047;-67
2021/12/16 03:08:12;;;;;;;6.72;5.68;;;;;;;5.03;69.61;100546.28;5107046;28;20048;-67
2021/12/16 03:11:05;;;;;;;7.50;5.35;;;;;;;5.02;69.75;100544.53;5107045;28;20040;-67
2021/12/16 03:13:43;;;;;;;7.80;5.20;;;;;;;4.98;69.53;100553.34;5106993;28;20058;-67
2021/12/16 03:16:22;;;;;;;9.35;6.63;;;;;;;4.97;69.82;100555.09;5107005;28;20048;-67
2021/12/16 03:19:09;;;;;;;8.40;5.72;;;;;;;4.94;69.50;100560.41;5106956;28;20047;-67
2021/12/16 03:21:46;;;;;;;8.90;6.90;;;;;;;4.94;69.55;100555.16;5106475;28;20064;-68
2021/12/16 03:24:44;;;;;;;7.63;5.72;;;;;;;4.92;69.57;100553.44;5106483;28;20185;-68
2021/12/16 03:30:50;;;;;;;8.07;5.13;;;;;;;4.93;69.61;100555.16;5083100;28;20070;-68
2021/12/16 03:33:45;;;;;;;9.25;6.50;;;;;;;4.91;69.65;100556.94;5106403;28;20040;-67
2021/12/16 03:36:28;;;;;;;7.88;5.72;;;;;;;4.91;69.60;100549.06;5106611;28;20066;-68
2021/12/16 03:39:03;;;;;;;7.82;5.82;;;;;;;4.93;69.49;100555.16;5106543;28;20047;-68
2021/12/16 03:41:38;;;;;;;7.13;5.53;;;;;;;4.96;69.73;100555.13;5106571;28;20047;-68
2021/12/16 03:44:14;;;;;;;8.52;5.82;;;;;;;4.97;69.49;100554.22;5106425;28;20184;-68
2021/12/16 03:46:52;;;;;;;8.20;6.05;;;;;;;4.99;69.32;100550.69;5106138;28;20102;-67
2021/12/16 03:49:26;;;;;;;7.93;5.63;;;;;;;5.01;69.47;100548.06;5106274;28;20047;-67
2021/12/16 03:52:06;;;;;;;8.13;6.38;;;;;;;4.99;69.61;100553.31;5106359;28;20048;-68
2021/12/16 03:54:41;;;;;;;9.32;6.25;;;;;;;4.99;69.74;100555.09;5106086;28;20306;-67
2021/12/16 03:57:15;;;;;;;8.10;5.75;;;;;;;4.55;69.57;100482.09;5106863;28;20048;-67
2021/12/16 03:59:48;;;;;;;7.72;5.55;;;;;;;4.99;69.69;100560.34;5106012;28;20051;-67
2021/12/16 04:02:25;;;;;;;7.28;5.70;;;;;;;4.98;69.68;100556.84;5105659;28;20050;-67
2021/12/16 04:04:58;;;;;;;7.07;5.43;;;;;;;4.97;69.72;100557.72;5106190;28;20040;-68
2021/12/16 04:07:34;;;;;;;8.43;6.60;;;;;;;5.00;69.68;100551.56;5105861;28;20044;-67
2021/12/16 04:10:11;;;;;;;7.55;6.03;;;;;;;4.97;69.74;100560.34;5106073;28;20319;-67
2021/12/16 04:12:45;;;;;;;7.38;5.35;;;;;;;4.98;69.71;100556.84;5106051;28;20059;-67
2021/12/16 04:15:17;;;;;;;7.60;6.25;;;;;;;5.02;69.91;100557.66;5105797;28;20385;-67
2021/12/16 04:17:49;;;;;;;10.63;6.75;;;;;;;5.04;69.90;100558.53;5105778;28;20047;-67
2021/12/16 04:20:22;;;;;;;8.13;6.13;;;;;;;5.05;69.77;100560.25;5105753;28;20052;-67
2021/12/16 04:22:55;;;;;;;8.95;6.75;;;;;;;5.03;69.89;100556.78;5105960;28;20059;-67
2021/12/16 04:25:31;;;;;;;7.05;5.82;;;;;;;5.03;69.80;100562.03;5105665;28;20054;-67
2021/12/16 04:28:10;;;;;;;9.07;7.28;;;;;;;5.01;69.80;100564.69;5105854;28;20052;-67
2021/12/16 04:30:43;;;;;;;8.30;7.45;;;;;;;4.54;69.88;100488.22;5105850;28;20048;-67
2021/12/16 04:33:13;;;;;;;8.95;7.85;;;;;;;5.01;69.92;100567.31;5105851;28;20040;-67
2021/12/16 04:35:44;;;;;;;9.98;7.15;;;;;;;4.97;69.93;100564.75;5105863;28;20059;-68
2021/12/16 04:38:15;;;;;;;11.98;8.27;;;;;;;4.97;69.89;100577.88;5105807;28;20102;-67
2021/12/16 04:40:46;;;;;;;10.10;8.55;;;;;;;4.94;69.93;100609.44;5105762;28;20085;-67
2021/12/16 04:43:20;;;;;;;10.13;7.43;;;;;;;4.95;69.94;100579.66;5105588;28;20055;-67
2021/12/16 04:45:49;;;;;;;9.40;7.22;;;;;;;4.96;69.86;100576.16;5105753;28;20052;-68
2021/12/16 04:48:20;;;;;;;11.85;8.88;;;;;;;4.91;69.93;100576.19;5105645;28;20040;-67
2021/12/16 04:50:49;;;;;;;9.63;8.30;;;;;;;4.95;70.12;100579.66;5105695;28;20040;-67
2021/12/16 04:53:19;;;;;;;9.82;7.38;;;;;;;4.91;70.17;100578.81;5105691;28;20308;-68
2021/12/16 04:55:51;;;;;;;10.25;7.65;;;;;;;4.89;70.39;100575.34;5105659;28;20103;-67
2021/12/16 04:58:21;;;;;;;10.10;7.20;;;;;;;3.33;70.22;100313.88;5105349;28;20052;-67
2021/12/16 05:00:51;;;;;;;10.95;7.90;;;;;;;4.88;70.40;100586.72;5105632;28;20040;-67
2021/12/16 05:03:22;;;;;;;10.73;7.82;;;;;;;4.86;70.55;100591.13;5105633;28;20307;-67
2021/12/16 05:05:52;;;;;;;11.25;7.97;;;;;;;4.85;70.63;100584.13;5105572;28;20047;-67
2021/12/16 05:08:21;;;;;;;10.77;9.15;;;;;;;3.26;70.58;100345.41;5106287;28;20052;-67
2021/12/16 05:10:54;;;;;;;12.45;8.23;;;;;;;4.81;70.79;100592.94;5105340;28;20047;-68
2021/12/16 05:13:30;;;;;;;11.95;8.95;;;;;;;4.75;71.08;100593.88;5105825;28;20048;-67
2021/12/16 05:16:04;;;;;;;15.20;8.85;;;;;;;4.77;71.11;100586.84;5109194;28;20043;-67
2021/12/16 05:18:38;;;;;;;9.30;7.32;;;;;;;4.76;71.32;100597.38;5108937;28;20196;-67
2021/12/16 05:21:25;;;;;;;11.10;8.47;;;;;;;4.75;71.25;100596.50;5108771;28;20270;-67
2021/12/16 05:24:25;;;;;;;12.90;9.10;;;;;;;4.75;71.31;100599.13;5109174;28;20047;-67
2021/12/16 05:27:02;;;;;;;10.18;8.65;;;;;;;4.73;71.50;100606.16;5109079;28;20048;-67
2021/12/16 05:29:35;;;;;;;13.25;8.43;;;;;;;4.73;71.49;100613.16;5108987;28;20057;-67
2021/12/16 05:32:08;;;;;;;11.23;9.15;;;;;;;4.51;71.45;100575.78;5109015;28;20047;-67
2021/12/16 05:34:41;;;;;;;11.70;9.82;;;;;;;4.74;71.64;100614.91;5108654;28;20220;-67
2021/12/16 05:37:13;;;;;;;11.95;9.38;;;;;;;2.69;71.39;100387.75;5108885;28;20307;-67
2021/12/16 05:39:45;;;;;;;10.30;8.45;;;;;;;4.70;71.83;100621.94;5108876;28;20048;-68
2021/12/16 05:42:18;;;;;;;10.38;7.95;;;;;;;4.73;71.87;100626.28;5108573;28;20047;-67
2021/12/16 05:44:51;;;;;;;10.43;7.97;;;;;;;4.71;71.82;100630.69;5108791;28;20055;-67
2021/12/16 05:47:24;;;;;;;11.80;8.95;;;;;;;4.70;71.93;100614.06;5108485;28;20238;-67
2021/12/16 05:49:56;;;;;;;13.35;10.55;;;;;;;4.70;72.00;100626.34;5108566;28;20044;-67
2021/12/16 05:52:29;;;;;;;13.52;10.85;;;;;;;4.67;72.34;100627.22;5108490;28;20319;-67
2021/12/16 05:55:01;;;;;;;11.95;10.55;;;;;;;4.62;72.64;100626.41;5108548;28;20075;-67
2021/12/16 05:57:33;;;;;;;12.20;9.55;;;;;;;4.59;72.71;100634.31;5108504;28;20066;-67
2021/12/16 06:00:13;;;;;;;12.10;9.27;;;;;;;4.59;73.01;100634.31;5108334;28;20070;-67
2021/12/16 06:02:46;;;;;;;12.07;9.50;;;;;;;4.56;72.95;100623.84;5108196;28;20047;-67
2021/12/16 06:05:19;;;;;;;11.13;8.63;;;;;;;4.54;73.06;100635.25;5108043;28;20296;-66
2021/12/16 06:07:52;;;;;;;13.20;9.10;;;;;;;4.57;73.16;100643.09;5108261;28;20048;-67
2021/12/16 06:11:01;;;;;;;12.30;9.75;;;;;;;4.56;73.23;100641.38;5108128;28;20047;-67
2021/12/16 06:13:33;;;;;;;10.48;8.48;;;;;;;4.55;73.22;100653.63;5107740;28;20048;-67
2021/12/16 06:27:30;;;;;;;14.23;8.13;;;;;;;4.52;73.87;100658.03;5107843;28;20047;-67
2021/12/16 06:30:05;;;;;;;11.48;8.63;;;;;;;4.53;74.21;100662.41;5107650;28;20036;-67
2021/12/16 06:32:39;;;;;;;11.45;8.82;;;;;;;4.52;74.08;100664.16;5107677;28;20048;-67
2021/12/16 06:35:12;;;;;;;10.45;7.63;;;;;;;4.54;73.89;100661.50;5107638;28;20296;-67
2021/12/16 06:37:45;;;;;;;11.18;8.63;;;;;;;4.47;73.76;100661.56;5107596;28;20048;-67
2021/12/16 06:40:18;;;;;;;10.80;8.25;;;;;;;4.43;74.07;100670.34;5107542;28;20070;-67
2021/12/16 06:42:54;;;;;;;9.73;7.25;;;;;;;4.40;74.22;100669.53;5107373;28;20048;-68
2021/12/16 06:45:30;;;;;;;10.65;7.40;;;;;;;4.42;73.88;100675.63;5107488;28;20048;-67
2021/12/16 06:48:09;;;;;;;11.27;7.55;;;;;;;3.05;73.50;100482.66;5107481;28;20047;-68
2021/12/16 06:50:48;;;;;;;10.55;8.18;;;;;;;4.41;73.96;100684.38;5107298;28;20055;-68
2021/12/16 06:53:26;;;;;;;11.32;8.15;;;;;;;4.47;73.72;100697.47;5107343;28;20048;-67
2021/12/16 06:56:06;;;;;;;10.73;8.65;;;;;;;3.50;73.78;100521.63;5106932;28;20062;-67
2021/12/16 06:58:44;;;;;;;11.55;8.60;;;;;;;4.47;73.74;100694.84;5107188;28;20044;-66
2021/12/16 07:01:31;;;;;;;10.00;6.90;;;;;;;4.44;74.01;100687.84;5106944;28;20044;-66
2021/12/16 07:04:09;;;;;;;10.65;8.18;;;;;;;4.46;73.98;100693.97;5106872;28;20060;-67
2021/12/16 07:06:42;;;;;;;10.75;7.82;;;;;;;4.49;73.86;100696.56;5106945;28;20239;-67
2021/12/16 07:09:17;;;;;;;9.10;7.63;;;;;;;3.74;73.90;100567.75;5106962;28;20047;-67
2021/12/16 07:11:52;;;;;;;10.13;8.05;;;;;;;4.22;74.42;100656.56;5106775;28;20040;-67
2021/12/16 07:14:35;;;;;;;9.20;7.70;;;;;;;4.51;74.18;100703.53;5106937;28;20047;-67
2021/12/16 07:17:10;;;;;;;14.57;8.50;;;;;;;4.54;74.18;100693.00;5106579;28;20209;-67
2021/12/16 07:19:46;;;;;;;11.55;8.48;;;;;;;4.49;74.68;100693.94;5106717;28;20044;-67
2021/12/16 07:22:19;;;;;;;10.88;8.35;;;;;;;4.46;75.17;100699.22;5106738;28;20048;-67
2021/12/16 07:24:51;;;;;;;10.48;8.15;;;;;;;4.44;75.05;100697.47;5106535;28;20048;-67
2021/12/16 07:27:24;;;;;;;10.75;8.27;;;;;;;4.45;74.98;100699.22;5106710;28;20058;-67
2021/12/16 07:29:56;;;;;;;9.27;7.50;;;;;;;4.46;75.06;100690.47;5106569;28;20048;-67
2021/12/16 07:32:29;;;;;;;10.25;7.78;;;;;;;4.51;74.84;100678.16;5106280;28;20044;-67
2021/12/16 07:35:04;;;;;;;13.40;9.95;;;;;;;4.24;74.50;100644.28;5107132;28;20208;-67
2021/12/16 07:37:36;;;;;;;10.63;8.27;;;;;;;4.26;74.83;100681.91;5105825;28;20040;-67
2021/12/16 07:40:14;;;;;;;10.25;7.82;;;;;;;4.43;74.98;100682.63;5106459;28;20067;-67
2021/12/16 07:42:58;;;;;;;10.05;7.50;;;;;;;4.44;75.07;100694.84;5106050;28;20040;-66
2021/12/16 07:45:32;;;;;;;9.55;7.70;;;;;;;4.40;75.53;100691.38;5106211;28;20051;-67
2021/12/16 07:48:05;;;;;;;11.38;7.95;;;;;;;4.36;75.55;100683.56;5106371;28;20067;-67
2021/12/16 07:50:42;;;;;;;10.52;7.82;;;;;;;4.33;75.57;100694.94;5106324;28;20059;-67
2021/12/16 07:53:14;;;;;;;9.80;7.47;;;;;;;4.32;76.22;100687.09;5106212;28;20047;-68
2021/12/16 07:55:47;;;;;;;10.10;7.20;;;;;;;2.94;76.21;100455.66;5105863;28;20292;-68
2021/12/16 07:58:20;;;;;;;10.75;8.05;;;;;;;4.30;76.46;100694.09;5106262;28;20044;-66
2021/12/16 08:00:54;;;;;;;9.27;6.78;;;;;;;4.33;76.13;100694.09;5105825;28;20044;-68
2021/12/16 08:03:34;;;;;;;12.03;7.47;;;;;;;2.12;75.88;100310.50;5106231;28;20047;-67
2021/12/16 08:06:06;;;;;;;9.98;8.63;;;;;;;4.36;76.16;100704.56;5105975;28;20044;-67
2021/12/16 08:08:39;;;;;;;10.32;8.13;;;;;;;4.41;75.88;100697.50;5105868;28;20047;-67
2021/12/16 08:11:11;;;;;;;9.48;7.10;;;;;;;4.43;75.73;100693.13;5105972;28;20059;-67
2021/12/16 08:13:44;;;;;;;10.32;7.18;;;;;;;4.41;75.72;100693.13;5106042;28;20047;-67
2021/12/16 08:16:17;;;;;;;10.90;7.47;;;;;;;4.46;75.67;100700.97;5105944;28;20055;-67
2021/12/16 08:18:49;;;;;;;10.68;7.07;;;;;;;4.47;75.39;100707.97;5105877;28;20059;-68
2021/12/16 08:21:27;;;;;;;12.18;7.35;;;;;;;4.47;75.32;100708.81;5105090;28;20052;-67
2021/12/16 08:24:04;;;;;;;8.32;6.13;;;;;;;4.51;75.33;100712.28;5105745;28;20052;-67
2021/12/16 08:26:38;;;;;;;9.43;7.03;;;;;;;4.48;75.34;100712.31;5105491;28;20204;-67
2021/12/16 08:29:10;;;;;;;8.00;5.85;;;;;;;3.81;75.04;100603.53;5105640;28;20048;-68
2021/12/16 08:31:44;;;;;;;9.65;7.82;;;;;;;4.48;75.05;100714.94;5105689;28;20110;-67
2021/12/16 08:34:17;;;;;;;9.80;7.10;;;;;;;4.49;75.23;100712.31;5105660;28;20059;-67
2021/12/16 08:36:51;;;;;;;9.40;6.82;;;;;;;4.52;75.30;100713.16;5105304;28;20044;-67
2021/12/16 08:39:25;;;;;;;9.38;5.90;;;;;;;4.59;75.51;100723.59;5105621;28;20040;-67
2021/12/16 08:42:00;;;;;;;7.43;5.72;;;;;;;4.62;75.81;100723.56;5105280;28;20043;-67
2021/12/16 08:44:32;;;;;;;9.20;6.70;;;;;;;4.57;75.87;100709.63;5105527;28;20044;-66
2021/12/16 08:47:08;;;;;;;7.72;6.30;;;;;;;4.59;75.58;100717.47;5105466;28;20059;-66
2021/12/16 08:49:41;;;;;;;7.53;5.15;;;;;;;4.57;75.63;100720.13;5109760;28;20047;-66
2021/12/16 08:52:17;;;;;;;5.60;4.68;;;;;;;4.55;75.94;100724.50;5109735;28;20043;-66
2021/12/16 08:54:50;;;;;;;6.90;4.90;;;;;;;4.59;76.06;100733.22;5109728;28;20048;-66
2021/12/16 08:57:22;;;;;;;7.22;5.10;;;;;;;4.59;76.02;100712.22;5109620;28;20059;-67
2021/12/16 08:59:55;;;;;;;7.18;4.82;;;;;;;4.58;75.90;100755.13;5109614;28;20051;-66
2021/12/16 09:02:28;;;;;;;5.57;4.03;;;;;;;4.33;75.91;100684.44;5109501;28;20055;-66
2021/12/16 09:05:00;;;;;;;6.90;4.57;;;;;;;4.57;75.56;100743.75;5109371;28;20048;-67
2021/12/16 09:07:34;;;;;;;6.55;3.88;;;;;;;4.56;75.99;100721.00;5109484;28;20052;-66
2021/12/16 09:10:10;;;;;;;6.00;3.95;;;;;;;4.55;76.30;100728.91;5109189;28;20048;-67
2021/12/16 09:13:00;;;;;;;8.30;4.65;;;;;;;4.60;76.34;100725.34;5109077;28;20047;-67
2021/12/16 09:15:37;;;;;;;7.13;4.30;;;;;;;4.58;76.12;100724.47;5109211;28;20063;-67
2021/12/16 09:18:11;;;;;;;6.07;4.43;;;;;;;4.59;75.73;100728.84;5109184;28;20040;-66
2021/12/16 09:20:44;;;;;;;6.70;4.13;;;;;;;4.60;75.85;100727.09;5108981;28;20296;-67
2021/12/16 09:23:19;;;;;;;6.32;4.30;;;;;;;4.63;75.70;100709.56;5108702;28;20204;-66
2021/12/16 09:25:51;;;;;;;7.68;4.13;;;;;;;4.41;75.58;100673.88;5108951;28;20048;-66
2021/12/16 09:28:27;;;;;;;5.18;3.53;;;;;;;4.52;75.21;100681.66;5108879;28;20059;-67
2021/12/16 09:30:59;;;;;;;5.40;3.72;;;;;;;4.77;74.90;100707.66;5108631;28;20044;-66
2021/12/16 09:33:33;;;;;;;7.72;4.07;;;;;;;4.78;75.08;100716.41;5108908;28;20048;-66
2021/12/16 09:36:03;;;;;;;6.85;4.45;;;;;;;4.79;74.75;100712.91;5108643;28;20059;-66
2021/12/16 09:38:34;;;;;;;5.38;3.72;;;;;;;4.76;74.67;100712.94;5108674;28;20056;-67
2021/12/16 09:41:03;;;;;;;7.53;4.07;;;;;;;4.80;74.52;100710.25;5108777;28;20071;-67
2021/12/16 09:43:36;;;;;;;10.50;4.22;;;;;;;4.55;74.46;100642.25;5108571;28;20040;-67
2021/12/16 09:46:12;;;;;;;5.70;3.85;;;;;;;4.91;74.36;100704.06;5108527;28;20039;-67
2021/12/16 09:48:45;;;;;;;6.97;3.95;;;;;;;4.98;74.23;100693.47;5108464;28;20058;-67
2021/12/16 09:51:23;;;;;;;5.75;2.88;;;;;;;5.02;74.05;100695.16;5108374;28;20043;-66
2021/12/16 09:54:01;;;;;;;6.30;3.55;;;;;;;5.09;73.72;100688.97;5108438;28;20042;-67
2021/12/16 09:56:35;;;;;;;6.18;3.53;;;;;;;5.11;73.78;100700.31;5108393;28;20047;-67
2021/12/16 09:59:12;;;;;;;5.22;3.17;;;;;;;5.13;73.67;100684.53;5107046;28;20323;-67
2021/12/16 10:01:48;;;;;;;6.60;3.60;;;;;;;3.60;73.42;100422.81;5107911;28;20044;-67
2021/12/16 10:04:23;;;;;;;4.57;3.20;;;;;;;5.12;73.34;100677.53;5107934;28;20208;-67
2021/12/16 10:06:57;;;;;;;4.53;3.28;;;;;;;5.10;73.38;100674.94;5108122;28;20142;-67
2021/12/16 10:09:31;;;;;;;4.93;3.90;;;;;;;5.09;73.27;100682.84;5107944;28;20048;-67
2021/12/16 10:12:12;;;;;;;4.57;3.27;;;;;;;5.04;72.94;100680.25;5107690;28;20059;-67
2021/12/16 10:15:07;;;;;;;6.60;3.88;;;;;;;4.10;73.14;100547.31;5107900;28;20441;-67
2021/12/16 10:17:41;;;;;;;;;;;;;;;5.04;73.10;100676.75;5108494;28;20039;-67
2021/12/16 10:20:18;;;;;;;8.52;4.80;;;;;;;5.01;73.29;100675.03;5107666;28;19916;-67
2021/12/16 10:22:51;;;;;;;19.63;9.73;;;;;;;4.73;73.14;100627.16;5107996;28;20055;-67
2021/12/16 10:25:30;;;;;;;7.57;5.05;;;;;;;5.04;72.84;100668.88;5107895;28;20047;-67
2021/12/16 10:28:07;;;;;;;5.47;4.20;;;;;;;5.03;72.76;100665.38;5107670;28;20047;-67
2021/12/16 10:30:51;;;;;;;5.72;4.28;;;;;;;5.00;72.70;100677.69;5107732;28;20048;-66
2021/12/16 10:33:29;;;;;;;6.15;4.07;;;;;;;4.97;72.54;100670.72;5107786;28;20047;-66
2021/12/16 10:36:11;;;;;;;5.32;4.20;;;;;;;4.94;72.54;100668.13;5107241;28;20296;-67
2021/12/16 10:38:45;;;;;;;6.40;4.40;;;;;;;4.95;72.44;100676.88;5107093;28;20288;-66
2021/12/16 10:41:24;;;;;;;6.55;3.95;;;;;;;4.88;72.35;100662.91;5107397;28;20044;-66
2021/12/16 10:44:02;;;;;;;8.38;4.70;;;;;;;4.87;72.15;100668.16;5106994;28;20059;-66
2021/12/16 10:46:37;;;;;;;15.80;8.45;;;;;;;4.91;72.73;100660.28;5106991;28;20044;-66
2021/12/16 10:49:12;;;;;;;10.13;6.65;;;;;;;4.91;72.57;100662.91;5107065;28;20075;-66
2021/12/16 10:51:47;;;;;;;8.20;5.28;;;;;;;3.38;72.60;100382.81;5106969;28;20040;-66
2021/12/16 10:54:20;;;;;;;;;;;;;;;4.89;72.16;100648.91;5107816;28;20048;-66
2021/12/16 10:57:00;;;;;;;9.50;6.45;;;;;;;4.88;72.66;100655.00;5106922;28;19916;-67
2021/12/16 10:59:36;;;;;;;10.90;6.25;;;;;;;4.66;72.60;100616.75;5107046;28;20055;-66
2021/12/16 11:02:14;;;;;;;7.22;4.60;;;;;;;4.89;72.40;100655.88;5107147;28;20044;-67
2021/12/16 11:04:50;;;;;;;6.88;4.93;;;;;;;4.90;72.47;100642.78;5107045;28;20048;-67
2021/12/16 11:07:26;;;;;;;7.82;5.25;;;;;;;4.87;72.64;100653.28;5106996;28;20059;-67
2021/12/16 11:10:02;;;;;;;5.55;4.28;;;;;;;4.87;72.56;100640.13;5106698;28;20053;-67
2021/12/16 11:12:39;;;;;;;4.60;4.07;;;;;;;4.89;72.55;100637.50;5106928;28;20208;-67
2021/12/16 11:15:23;;;;;;;6.32;4.85;;;;;;;4.92;72.53;100640.13;5106687;28;20228;-67
2021/12/16 11:18:02;;;;;;;5.32;4.20;;;;;;;4.91;72.44;100635.75;5106511;28;20040;-67
2021/12/16 11:20:37;;;;;;;7.18;5.43;;;;;;;4.91;72.33;100644.50;5106537;28;20051;-67
2021/12/16 11:23:13;;;;;;;6.13;4.85;;;;;;;4.93;72.25;100639.22;5106693;28;20044;-67
2021/12/16 11:25:47;;;;;;;7.55;4.88;;;;;;;4.98;72.28;100637.41;5106335;28;20048;-67
2021/12/16 11:28:24;;;;;;;5.10;4.05;;;;;;;4.95;72.02;100642.72;5106457;28;20040;-67
2021/12/16 11:30:58;;;;;;;6.53;4.75;;;;;;;5.18;72.05;100638.03;5105848;28;20047;-70
2021/12/16 11:33:33;;;;;;;6.18;4.47;;;;;;;5.45;71.30;100634.16;5106490;28;20039;-66
2021/12/16 11:36:10;;;;;;;6.65;4.70;;;;;;;5.74;70.28;100633.75;5106078;28;20040;-67
2021/12/16 11:38:44;;;;;;;8.98;4.60;;;;;;;5.96;69.51;100621.13;5106077;28;20040;-68
2021/12/16 11:41:24;;;;;;;7.07;5.18;;;;;;;6.17;68.91;100625.16;5105811;28;20047;-67
2021/12/16 11:44:05;;;;;;;;;;;;;;;6.33;68.28;100618.75;5106152;28;20048;-68
2021/12/16 11:46:42;;;;;;;6.00;4.72;;;;;;;6.41;67.53;100608.94;5105154;28;19990;-67
2021/12/16 11:49:22;;;;;;;5.78;3.80;;;;;;;6.41;67.50;100603.66;5105461;28;20036;-68
2021/12/16 11:51:59;;;;;;;5.72;4.35;;;;;;;6.42;67.58;100602.78;5106062;28;20050;-68
2021/12/16 11:54:35;;;;;;;5.97;4.32;;;;;;;6.41;67.14;100603.66;5106045;28;20048;-68
2021/12/16 11:57:13;;;;;;;5.80;4.45;;;;;;;6.34;67.57;100587.13;5105762;28;20040;-68
2021/12/16 11:59:47;;;;;;;4.78;3.55;;;;;;;6.23;68.35;100604.00;5105901;28;20048;-68
2021/12/16 12:02:26;;;;;;;5.68;3.70;;;;;;;5.88;68.15;100562.50;5105814;28;20055;-66
2021/12/16 12:05:16;;;;;;;6.03;4.22;;;;;;;6.06;68.53;100623.59;5105987;28;20196;-68
2021/12/16 12:07:52;;;;;;;6.82;5.15;;;;;;;6.00;69.32;100604.38;5105430;28;20052;-68
2021/12/16 12:10:37;;;;;;;5.95;4.10;;;;;;;5.88;68.98;100592.31;5105999;28;20046;-68
2021/12/16 12:13:12;;;;;;;7.63;4.78;;;;;;;5.90;69.60;100605.44;5105851;28;20040;-68
2021/12/16 12:16:01;;;;;;;6.20;4.53;;;;;;;5.85;69.20;100599.38;5105963;28;20044;-68
2021/12/16 12:18:38;;;;;;;7.43;5.07;;;;;;;5.81;69.51;100601.19;5105831;28;20047;-68
2021/12/16 12:21:27;;;;;;;7.15;5.65;;;;;;;5.75;69.29;100590.78;5105618;28;20306;-68
2021/12/16 12:24:03;;;;;;;6.40;4.65;;;;;;;5.75;69.95;100619.69;5105160;28;20342;-68
2021/12/16 12:26:37;;;;;;;6.95;5.70;;;;;;;5.71;69.89;100605.72;5105478;28;20040;-68
2021/12/16 12:29:13;;;;;;;8.65;5.80;;;;;;;5.70;70.08;100629.44;5105850;28;20297;-68
2021/12/16 12:31:48;;;;;;;8.65;6.38;;;;;;;5.65;70.67;100607.59;5105253;28;20047;-68
2021/12/16 12:34:23;;;;;;;7.70;5.82;;;;;;;5.68;70.45;100616.31;5105625;28;20051;-68
2021/12/16 12:36:58;;;;;;;7.80;6.15;;;;;;;5.66;70.60;100620.72;5105265;28;20055;-68
2021/12/16 12:39:36;;;;;;;6.93;5.97;;;;;;;5.61;70.67;100606.75;5105536;28;20048;-67
2021/12/16 12:42:10;;;;;;;8.43;6.50;;;;;;;5.63;70.91;100628.66;5105498;28;20055;-66
2021/12/16 12:44:44;;;;;;;7.80;5.82;;;;;;;5.63;70.90;100631.28;5105403;28;20200;-66
2021/12/16 12:47:19;;;;;;;10.98;6.00;;;;;;;5.65;70.92;100636.53;5104977;28;20304;-67
2021/12/16 12:49:52;;;;;;;;;;;;;;;5.61;70.82;100634.81;5105991;28;20059;-67
2021/12/16 12:52:27;;;;;;;7.13;5.55;;;;;;;5.61;71.21;100638.31;5105273;28;19915;-66
2021/12/16 12:55:01;;;;;;;;;;;;;;;5.62;71.10;100639.19;5105471;28;20185;-66
2021/12/16 12:57:36;;;;;;;9.48;6.55;;;;;;;5.58;71.62;100630.47;5105324;28;19915;-66
2021/12/16 13:00:11;;;;;;;11.82;7.78;;;;;;;5.52;71.99;100630.56;5105310;28;20292;-67
2021/12/16 13:02:44;;;;;;;12.15;8.13;;;;;;;5.50;72.20;100624.47;5105223;28;20044;-67
2021/12/16 13:05:21;;;;;;;71.82;43.22;;;;;;;5.47;72.55;100624.50;5105095;28;20074;-67
2021/12/16 13:07:58;;;;;;;37.40;22.55;;;;;;;5.48;72.52;100617.50;5105121;28;20040;-67
2021/12/16 13:10:35;;;;;;;33.97;21.02;;;;;;;5.46;72.95;100625.41;5105116;28;20059;-67
2021/12/16 13:28:35;;;;;;;32.33;19.92;;;;;;;5.35;73.45;100838.50;5104419;28;20054;-67
2021/12/16 13:31:27;;;;;;;22.20;14.88;;;;;;;5.32;73.63;100628.22;5104759;28;20155;-67
2021/12/16 13:34:01;;;;;;;42.80;25.38;;;;;;;5.27;73.52;100637.06;5104290;28;20048;-67
2021/12/16 13:36:46;;;;;;;29.30;16.05;;;;;;;5.24;73.68;100637.97;5107662;28;20147;-68
2021/12/16 13:39:22;;;;;;;18.38;12.85;;;;;;;5.25;73.92;100720.31;5108054;28;20220;-68
2021/12/16 13:41:58;;;;;;;29.60;19.15;;;;;;;5.25;73.84;100634.44;5108294;28;20044;-68
2021/12/16 13:44:43;;;;;;;31.25;18.98;;;;;;;5.27;74.25;100637.06;5108164;28;20107;-67
2021/12/16 13:47:29;;;;;;;23.38;14.90;;;;;;;5.24;74.13;100632.72;5107621;28;20059;-67
2021/12/16 14:05:44;;;;;;;30.75;19.52;;;;;;;4.96;73.79;100607.66;5107866;28;20208;-67
2021/12/16 14:08:34;;;;;;;28.23;19.13;;;;;;;5.21;73.68;100652.91;5107833;28;20083;-68
2021/12/16 14:17:15;;;;;;;24.92;16.67;;;;;;;5.23;73.70;100645.88;5107773;28;20059;-68
2021/12/16 14:25:34;;;;;;;22.13;13.35;;;;;;;5.16;73.55;100652.09;5107344;28;20040;-68
2021/12/16 14:31:19;;;;;;;19.55;13.27;;;;;;;5.12;73.56;100641.63;5107147;28;20295;-68
2021/12/16 14:37:13;;;;;;;18.77;11.32;;;;;;;5.07;73.62;100647.81;5104194;28;20067;-68
2021/12/16 14:42:48;;;;;;;20.20;12.38;;;;;;;5.08;73.56;100632.03;5078667;28;20066;-67
2021/12/16 14:45:30;;;;;;;14.45;11.05;;;;;;;5.08;73.58;100632.03;5107047;28;20074;-67
2021/12/16 14:48:22;;;;;;;13.68;10.07;;;;;;;5.09;73.66;100636.41;5106751;28;20043;-67
2021/12/16 14:51:01;;;;;;;12.80;9.00;;;;;;;5.06;73.48;100638.19;5106981;28;20066;-69